TimeCST,TemperatureF,Dew PointF,Humidity,Sea Level PressureIn,VisibilityMPH,Wind Direction,Wind SpeedMPH,Gust SpeedMPH,PrecipitationIn,Events,Conditions,WindDirDegrees,DateUTC
12:15 AM,33.8,17.6,52,30.65,10.0,North,4.6,-,N/A,,Clear,360,2013-11-13 06:15:00
12:35 AM,30.2,17.6,60,30.64,10.0,North,6.9,-,N/A,,Clear,360,2013-11-13 06:35:00
12:55 AM,30.2,17.6,60,30.63,10.0,North,9.2,-,N/A,,Clear,360,2013-11-13 06:55:00
1:15 AM,30.2,17.6,60,30.63,10.0,North,8.1,-,N/A,,Clear,350,2013-11-13 07:15:00
1:35 AM,30.2,17.6,60,30.63,10.0,North,6.9,-,N/A,,Clear,360,2013-11-13 07:35:00
1:55 AM,28.4,17.6,64,30.63,10.0,NNW,6.9,-,N/A,,Clear,340,2013-11-13 07:55:00
2:15 AM,28.4,17.6,64,30.64,10.0,NNW,5.8,-,N/A,,Clear,340,2013-11-13 08:15:00
2:35 AM,28.4,17.6,64,30.64,10.0,NNW,5.8,-,N/A,,Clear,340,2013-11-13 08:35:00
2:55 AM,26.6,17.6,69,30.64,10.0,North,4.6,-,N/A,,Clear,350,2013-11-13 08:55:00
3:15 AM,26.6,17.6,69,30.64,10.0,NNW,3.5,-,N/A,,Clear,330,2013-11-13 09:15:00
3:35 AM,26.6,17.6,69,30.64,10.0,NNW,3.5,-,N/A,,Clear,330,2013-11-13 09:35:00
3:55 AM,26.6,17.6,69,30.63,10.0,NNW,4.6,-,N/A,,Clear,330,2013-11-13 09:55:00
4:15 AM,26.6,17.6,69,30.63,10.0,NNW,4.6,-,N/A,,Clear,330,2013-11-13 10:15:00
4:35 AM,24.8,17.6,74,30.63,10.0,NNW,4.6,-,N/A,,Clear,330,2013-11-13 10:35:00
4:55 AM,24.8,17.6,74,30.62,10.0,NNW,4.6,-,N/A,,Clear,340,2013-11-13 10:55:00
5:15 AM,24.8,17.6,74,30.62,10.0,NNW,5.8,-,N/A,,Clear,340,2013-11-13 11:15:00
5:35 AM,24.8,17.6,74,30.62,10.0,NNW,5.8,-,N/A,,Clear,330,2013-11-13 11:35:00
5:55 AM,24.8,17.6,74,30.62,10.0,NNW,5.8,-,N/A,,Clear,330,2013-11-13 11:55:00
6:15 AM,24.8,17.6,74,30.61,10.0,NNW,5.8,-,N/A,,Clear,340,2013-11-13 12:15:00
6:35 AM,24.8,17.6,74,30.62,10.0,NNW,6.9,-,N/A,,Clear,340,2013-11-13 12:35:00
6:55 AM,24.8,17.6,74,30.62,10.0,NNW,5.8,-,N/A,,Clear,340,2013-11-13 12:55:00
7:15 AM,23.0,17.6,80,30.61,10.0,North,8.1,-,N/A,,Clear,350,2013-11-13 13:15:00
7:35 AM,26.6,17.6,69,30.62,10.0,North,5.8,-,N/A,,Clear,360,2013-11-13 13:35:00
7:55 AM,28.4,19.4,69,30.62,10.0,North,4.6,-,N/A,,Clear,350,2013-11-13 13:55:00
8:15 AM,32.0,15.8,51,30.63,10.0,NNE,6.9,-,N/A,,Clear,30,2013-11-13 14:15:00
8:35 AM,33.8,15.8,48,30.63,10.0,NE,6.9,-,N/A,,Clear,50,2013-11-13 14:35:00
8:55 AM,33.8,17.6,52,30.62,10.0,ENE,5.8,-,N/A,,Clear,70,2013-11-13 14:55:00
9:15 AM,35.6,17.6,48,30.62,10.0,East,5.8,-,N/A,,Clear,100,2013-11-13 15:15:00
9:35 AM,37.4,17.6,45,30.62,10.0,East,5.8,-,N/A,,Clear,90,2013-11-13 15:35:00
9:55 AM,39.2,19.4,45,30.62,10.0,ESE,4.6,-,N/A,,Clear,110,2013-11-13 15:55:00
10:15 AM,39.2,21.2,49,30.61,10.0,East,3.5,-,N/A,,Clear,80,2013-11-13 16:15:00
10:35 AM,42.8,23.0,46,30.61,10.0,Variable,4.6,-,N/A,,Clear,0,2013-11-13 16:35:00
10:55 AM,42.8,23.0,46,30.60,10.0,ESE,4.6,-,N/A,,Clear,110,2013-11-13 16:55:00
11:15 AM,44.6,23.0,43,30.59,10.0,Calm,Calm,-,N/A,,Clear,0,2013-11-13 17:15:00
11:35 AM,44.6,23.0,43,30.58,10.0,SSW,3.5,-,N/A,,Clear,200,2013-11-13 17:35:00
11:55 AM,46.4,23.0,40,30.57,10.0,SSW,5.8,-,N/A,,Clear,200,2013-11-13 17:55:00
12:15 PM,46.4,23.0,40,30.55,10.0,Calm,Calm,-,N/A,,Clear,0,2013-11-13 18:15:00
12:35 PM,48.2,23.0,37,30.53,10.0,Calm,Calm,-,N/A,,Clear,0,2013-11-13 18:35:00
12:55 PM,48.2,21.2,34,30.51,10.0,Calm,Calm,-,N/A,,Clear,0,2013-11-13 18:55:00
1:15 PM,50.0,23.0,35,30.50,10.0,SW,4.6,-,N/A,,Clear,220,2013-11-13 19:15:00
1:35 PM,50.0,24.8,37,30.49,10.0,Calm,Calm,-,N/A,,Clear,0,2013-11-13 19:35:00
1:55 PM,51.8,23.0,33,30.48,10.0,Variable,3.5,-,N/A,,Clear,0,2013-11-13 19:55:00
2:15 PM,51.8,21.2,30,30.47,10.0,Calm,Calm,-,N/A,,Clear,0,2013-11-13 20:15:00
2:35 PM,51.8,23.0,33,30.46,10.0,East,4.6,-,N/A,,Clear,90,2013-11-13 20:35:00
2:55 PM,53.6,24.8,33,30.44,10.0,Calm,Calm,-,N/A,,Clear,0,2013-11-13 20:55:00
3:15 PM,53.6,23.0,30,30.44,10.0,Calm,Calm,-,N/A,,Clear,0,2013-11-13 21:15:00
3:35 PM,53.6,23.0,30,30.43,10.0,Calm,Calm,-,N/A,,Clear,0,2013-11-13 21:35:00
3:55 PM,53.6,23.0,30,30.42,10.0,Calm,Calm,-,N/A,,Clear,0,2013-11-13 21:55:00
4:15 PM,55.4,24.8,31,30.41,10.0,Variable,3.5,-,N/A,,Clear,0,2013-11-13 22:15:00
4:35 PM,53.6,21.2,28,30.41,10.0,SE,4.6,-,N/A,,Clear,130,2013-11-13 22:35:00
4:55 PM,51.8,23.0,33,30.41,10.0,SSE,4.6,-,N/A,,Clear,150,2013-11-13 22:55:00
5:15 PM,51.8,23.0,33,30.40,10.0,SE,4.6,-,N/A,,Clear,140,2013-11-13 23:15:00
5:35 PM,50.0,23.0,35,30.40,10.0,SSE,3.5,-,N/A,,Clear,150,2013-11-13 23:35:00
5:55 PM,48.2,23.0,37,30.40,10.0,SSE,4.6,-,N/A,,Clear,150,2013-11-13 23:55:00
6:15 PM,46.4,23.0,40,30.40,10.0,SE,4.6,-,N/A,,Clear,130,2013-11-14 00:15:00
6:35 PM,44.6,23.0,43,30.40,10.0,ESE,4.6,-,N/A,,Clear,120,2013-11-14 00:35:00
6:55 PM,44.6,23.0,43,30.40,10.0,East,4.6,-,N/A,,Clear,100,2013-11-14 00:55:00
7:15 PM,42.8,24.8,49,30.40,10.0,East,4.6,-,N/A,,Clear,100,2013-11-14 01:15:00
7:35 PM,41.0,24.8,53,30.39,10.0,East,4.6,-,N/A,,Clear,90,2013-11-14 01:35:00
7:55 PM,41.0,24.8,53,30.39,10.0,Calm,Calm,-,N/A,,Clear,0,2013-11-14 01:55:00
8:15 PM,39.2,24.8,56,30.38,10.0,East,3.5,-,N/A,,Clear,100,2013-11-14 02:15:00
8:35 PM,39.2,24.8,56,30.38,10.0,SE,3.5,-,N/A,,Clear,130,2013-11-14 02:35:00
8:55 PM,39.2,24.8,56,30.38,10.0,SE,4.6,-,N/A,,Clear,130,2013-11-14 02:55:00
9:15 PM,37.4,24.8,60,30.38,10.0,SE,3.5,-,N/A,,Clear,130,2013-11-14 03:15:00
9:35 PM,37.4,24.8,60,30.37,10.0,SE,4.6,-,N/A,,Clear,130,2013-11-14 03:35:00
9:55 PM,39.2,24.8,56,30.37,10.0,SE,4.6,-,N/A,,Clear,140,2013-11-14 03:55:00
10:15 PM,37.4,23.0,56,30.37,10.0,SSE,5.8,-,N/A,,Clear,150,2013-11-14 04:15:00
10:35 PM,37.4,23.0,56,30.37,10.0,SE,5.8,-,N/A,,Clear,140,2013-11-14 04:35:00
10:55 PM,37.4,23.0,56,30.36,10.0,SE,4.6,-,N/A,,Clear,140,2013-11-14 04:55:00
11:15 PM,37.4,23.0,56,30.36,10.0,SE,5.8,-,N/A,,Clear,130,2013-11-14 05:15:00
11:35 PM,35.6,24.8,65,30.35,10.0,SE,5.8,-,N/A,,Clear,140,2013-11-14 05:35:00
11:55 PM,37.4,24.8,60,30.35,10.0,SE,6.9,-,N/A,,Clear,140,2013-11-14 05:55:00